aviador You're here:

SAVC Decoded Metar

COMODORO RIVADAVIA in ARGENTINA
Report Time2018-05-21 20:00:00
UTC Time2018-05-21 20:17:47
Flight Rules vfr VFR
Wind270° at 18 Gusting to 28 kt
W.Decomp.*RWY 25: 17.5 kt HW 4.0 kt RCW
W.Rank270° ranks 1
Current wind is above 270° avg. (12.7)
Visibility9999 m
Phenomena:N/A
Clouds:N/A
Expected CloudBase > 3,200 ft AGL from Temp-Dew spread
CeilingNone
Temp12°C (ISA -3)
Dew Point04°C (58% RH)
AAT4.2°C
QNH1013 hPa
Density Alt-59 ft
Elevation151 ft
Report Wrong Elevation
Raw Report
SAVC 212000Z 27018G28KT CAVOK 12/04 Q1013=

Extra information for SAVC:More info

Metar Taf Metar & Taf Last 4 Metars F.Rules Stats Wind Profile Meteogram Temp Stats Airport Information Weather charts Add Link Nearby VenuesMetar ALERT Operation Metar Decoded Social comments